El Arish, Egypt

6:14 AM EET on August 22, 2014 (GMT +0200)
El Arish International | Change Station
CLOSE
Current Station
Airport
Location: El Arish,
Elevation: 105 ft
Nearby Weather Stations

Elev 105 ft 31.07 °N, 33.84 °E | Updated 1 hour ago

Clear
Clear
72 °F
Feels Like 72 °F
N
2
Wind Variable Wind from South

Today
High -- | Low -- °F
--% Chance of Precip.
Yesterday
High -- | Low -- °F
Precip. -- in
5:14 AM 6:20 PM
Waning Crescent, 10% visible
Pressure 29.83 in
Visibility -9999.0 miles
Clouds
Dew Point 70 °F
Humidity 94%
Rainfall 0.00 in
Snow Depth Not available.
UV Not available.
Pollen Not available.
Air Quality Not available.
Flu Activity Not available.
METAR HEAR 220300Z 18002KT CAVOK 22/21 Q1010 NOSIG

More Conditions Fewer Conditions

Pressure 29.83 in
Visibility -9999.0 miles
Clouds
Dew Point 70 °F
Humidity 94%
Rainfall 0.00 in
Snow Depth Not available.
UV Not available.
Pollen Not available.
Air Quality Not available.
Flu Activity Not available.
METAR HEAR 220300Z 18002KT CAVOK 22/21 Q1010 NOSIG

More Conditions Fewer Conditions

10-Day Weather Forecast

Almanac

Astronomy

Aug. 22, 2014 Rise Set
Actual Time 5:14 AM EET 6:20 PM EET
Civil Twilight 4:49 AM EET 6:45 PM EET
Nautical Twilight 4:19 AM EET 7:14 PM EET
Astronomical Twilight 3:49 AM EET 7:45 PM EET
Moon 2:24 AM EET 4:11 PM EET
Length of Visible Light 13h 55m
Length of Day
13h 05m
Tomorrow will be 1m 45s shorter.
Waning Crescent, 10% of the Moon is Illuminated
Today
Waning Crescent
Aug 25
New
Sep 2
First Quarter
Sep 8
Full
Sep 15
Last Quarter

Yesterday's Extremes

Country Highs Country Lows

Community

WunderPhotos

Upload Photos

1,746,128 photos uploaded!

Nearby

Snow Depth

Not available.

Earthquake Activity

City Distance Mag. Time & Date
No recent earthquake activity has been reported nearby.
Minimum magnitude displayed is 2.5.

Coastal Water Temperatures

Place Temperature
No Stations Reporting

Nearby Weather Stations